Time;durP1;ratioP1;P1;durP2;ratioP2;P2;SDS_P1;SDS_P2;PMS_P1;PMS_P2;Temp;Humidity;BMP_temperature;BMP_pressure;BME280_temperature;BME280_humidity;BME280_pressure;Samples;Min_cycle;Max_cycle;Signal;HPM_P1;HPM_P2
2022/10/03 00:00:12;;;;;;;2.10;0.73;;;;;;;8.68;100.00;101196.13;4934241;29;20038;-79
2022/10/03 00:03:29;;;;;;;1.38;0.70;;;;;;;8.58;100.00;101200.88;4933431;29;20487;-79
2022/10/03 00:06:13;;;;;;;3.15;0.60;;;;;;;8.56;100.00;101214.44;4898784;29;20522;-79
2022/10/03 00:08:58;;;;;;;1.40;0.70;;;;;;;8.54;100.00;101215.63;4934048;29;20451;-79
2022/10/03 00:11:34;;;;;;;3.08;1.00;;;;;;;8.46;100.00;101211.16;4919703;29;20028;-79
2022/10/03 00:14:25;;;;;;;2.50;0.60;;;;;;;8.37;100.00;101210.31;4916603;29;20070;-79
2022/10/03 00:16:58;;;;;;;2.58;0.80;;;;;;;8.36;100.00;101208.66;4933574;29;20522;-79
2022/10/03 00:20:01;;;;;;;3.33;0.80;;;;;;;8.36;100.00;101216.69;4933798;29;20086;-79
2022/10/03 00:22:47;;;;;;;1.67;0.60;;;;;;;8.19;100.00;101202.53;4916831;29;20717;-79
2022/10/03 00:25:25;;;;;;;2.70;0.60;;;;;;;8.20;100.00;101208.72;4933695;29;20486;-79
2022/10/03 00:28:19;;;;;;;2.67;0.75;;;;;;;7.89;100.00;101177.34;4933888;29;20106;-79
2022/10/03 00:31:08;;;;;;;4.88;0.90;;;;;;;8.10;100.00;101219.63;4933789;29;20043;-79
2022/10/03 00:33:56;;;;;;;2.08;0.85;;;;;;;8.07;100.00;101227.19;4920768;29;20024;-79
2022/10/03 00:36:54;;;;;;;2.83;0.80;;;;;;;7.84;100.00;101203.81;4933154;29;20581;-79
2022/10/03 00:40:01;;;;;;;7.43;1.10;;;;;;;7.80;100.00;101226.59;4918963;29;20036;-79
2022/10/03 00:43:03;;;;;;;3.83;1.10;;;;;;;7.71;100.00;101217.72;4897594;29;20040;-79
2022/10/03 00:45:54;;;;;;;3.90;1.00;;;;;;;7.80;100.00;101223.06;4909274;29;20047;-79
2022/10/03 00:48:57;;;;;;;2.42;0.80;;;;;;;7.84;100.00;101221.72;4933717;29;20035;-79
2022/10/03 00:51:40;;;;;;;1.05;0.80;;;;;;;7.88;100.00;101233.75;4901953;29;20032;-79
2022/10/03 00:54:43;;;;;;;3.33;0.77;;;;;;;7.89;100.00;101230.09;4933418;29;20087;-79
2022/10/03 00:57:33;;;;;;;1.85;0.60;;;;;;;7.85;100.00;101228.78;4916264;29;20406;-79
2022/10/03 01:00:07;;;;;;;0.70;0.68;;;;;;;7.79;100.00;101235.63;4916355;29;20027;-79
2022/10/03 01:02:40;;;;;;;1.40;0.70;;;;;;;7.74;100.00;101229.94;4916366;29;20031;-79
2022/10/03 01:05:14;;;;;;;2.53;0.80;;;;;;;7.72;100.00;101231.97;4916435;29;20024;-80
2022/10/03 01:08:01;;;;;;;3.65;0.95;;;;;;;7.77;100.00;101241.16;4933677;29;20027;-79
2022/10/03 01:10:32;;;;;;;2.28;1.00;;;;;;;7.81;100.00;101240.81;4936987;29;20043;-79
2022/10/03 01:13:17;;;;;;;2.15;0.73;;;;;;;7.79;100.00;101241.00;4936678;29;20035;-80
2022/10/03 01:15:59;;;;;;;1.27;0.65;;;;;;;7.59;100.00;101224.47;4936895;29;20106;-79
2022/10/03 01:18:44;;;;;;;0.85;0.70;;;;;;;7.70;100.00;101245.53;4936734;29;20121;-79
2022/10/03 01:21:33;;;;;;;1.02;0.70;;;;;;;7.67;100.00;101251.22;4918766;29;20565;-80
2022/10/03 01:24:44;;;;;;;3.08;0.80;;;;;;;7.66;100.00;101249.56;4864200;29;20060;-79
2022/10/03 01:27:17;;;;;;;1.50;0.65;;;;;;;7.56;100.00;101240.84;4842538;29;20076;-79
2022/10/03 01:30:21;;;;;;;3.08;0.80;;;;;;;7.46;100.00;101226.81;4934621;29;20028;-79
2022/10/03 01:32:54;;;;;;;3.63;0.90;;;;;;;7.67;100.00;101263.78;4919640;29;20031;-79
2022/10/03 01:35:39;;;;;;;2.30;0.80;;;;;;;7.59;100.00;101245.06;4904425;29;20087;-79
2022/10/03 01:38:21;;;;;;;2.33;0.73;;;;;;;7.67;100.00;101261.09;4919575;29;20554;-79
2022/10/03 01:40:58;;;;;;;3.15;0.68;;;;;;;7.52;100.00;101247.56;4919166;29;20107;-79
2022/10/03 01:43:34;;;;;;;2.40;0.82;;;;;;;7.65;100.00;101269.31;4904700;29;20035;-79
2022/10/03 01:46:22;;;;;;;3.90;0.85;;;;;;;7.62;100.00;101277.69;4919168;29;20044;-80
2022/10/03 01:49:06;;;;;;;1.75;0.75;;;;;;;7.53;100.00;101276.84;4936420;29;20035;-79
2022/10/03 01:51:50;;;;;;;3.13;0.60;;;;;;;7.39;100.00;101277.50;4905690;29;20030;-79
2022/10/03 01:54:18;;;;;;;1.77;0.90;;;;;;;7.30;100.00;101275.81;4919260;29;20028;-79
2022/10/03 01:57:00;;;;;;;4.93;1.00;;;;;;;7.26;100.00;101269.97;4936106;29;20090;-79
2022/10/03 01:59:41;;;;;;;3.05;1.20;;;;;;;7.25;100.00;101268.31;4904588;29;20103;-79
2022/10/03 02:02:26;;;;;;;4.63;1.02;;;;;;;7.23;100.00;101286.34;4918927;29;20043;-79
2022/10/03 02:04:58;;;;;;;2.63;1.10;;;;;;;7.17;100.00;101279.00;4918916;29;20166;-79
2022/10/03 02:07:26;;;;;;;6.22;1.67;;;;;;;7.10;100.00;101287.84;4921204;29;20118;-79
2022/10/03 02:10:13;;;;;;;5.22;1.75;;;;;;;7.04;100.00;101276.78;4919051;29;20038;-80
2022/10/03 02:12:45;;;;;;;9.52;2.08;;;;;;;6.64;100.00;101221.38;4935910;29;20497;-79
2022/10/03 02:15:23;;;;;;;5.75;1.55;;;;;;;6.67;100.00;101233.59;4935425;29;20074;-79
2022/10/03 02:18:13;;;;;;;2.20;1.67;;;;;;;6.83;100.00;101263.03;4919079;29;20034;-79
2022/10/03 02:20:53;;;;;;;3.58;1.77;;;;;;;6.96;100.00;101275.97;4934843;29;20046;-80
2022/10/03 02:23:33;;;;;;;4.38;2.17;;;;;;;7.05;100.00;101286.50;4920125;29;20027;-79
2022/10/03 02:26:20;;;;;;;5.20;2.83;;;;;;;7.13;100.00;101283.00;4918409;29;20032;-79
2022/10/03 02:29:04;;;;;;;4.22;3.15;;;;;;;7.21;100.00;101284.84;4918430;29;20506;-79
2022/10/03 02:32:05;;;;;;;6.22;3.33;;;;;;;6.98;100.00;101242.66;4904130;29;20066;-79
2022/10/03 02:35:02;;;;;;;6.28;3.47;;;;;;;7.38;100.00;101289.22;4935621;29;20028;-79
2022/10/03 02:37:49;;;;;;;6.32;3.30;;;;;;;7.46;100.00;101291.91;4904128;29;20032;-79
2022/10/03 02:40:47;;;;;;;8.10;4.00;;;;;;;7.53;100.00;101295.59;4935330;29;20028;-79
2022/10/03 02:43:31;;;;;;;8.25;4.68;;;;;;;7.62;100.00;101299.09;4935139;29;20582;-79
2022/10/03 02:45:59;;;;;;;6.75;5.90;;;;;;;7.76;100.00;101293.06;4935217;29;20130;-79
2022/10/03 02:48:34;;;;;;;8.23;6.32;;;;;;;7.91;100.00;101297.72;4917978;29;20035;-79
2022/10/03 02:51:17;;;;;;;7.22;6.40;;;;;;;8.07;100.00;101289.66;4935477;29;20454;-79
2022/10/03 02:54:02;;;;;;;11.13;6.40;;;;;;;8.19;100.00;101287.47;4935207;29;20032;-79
2022/10/03 02:57:07;;;;;;;11.57;7.15;;;;;;;7.80;100.00;101210.50;4918107;29;20102;-79
2022/10/03 02:59:56;;;;;;;10.88;7.10;;;;;;;8.33;100.00;101289.44;4904040;29;20039;-79
2022/10/03 03:02:33;;;;;;;12.23;7.32;;;;;;;8.44;100.00;101299.84;4934955;29;20035;-79
2022/10/03 03:05:22;;;;;;;12.27;7.78;;;;;;;8.52;100.00;101298.13;4934883;29;20027;-79
2022/10/03 03:08:25;;;;;;;10.60;7.57;;;;;;;8.62;100.00;101304.94;4934834;29;20558;-79
2022/10/03 03:11:02;;;;;;;8.88;7.70;;;;;;;8.54;100.00;101288.88;4934963;29;20436;-79
2022/10/03 03:14:01;;;;;;;11.68;6.88;;;;;;;8.71;100.00;101303.09;4920082;29;20110;-79
2022/10/03 03:16:42;;;;;;;14.38;7.57;;;;;;;8.77;100.00;101301.53;4917813;29;20098;-79
2022/10/03 03:19:40;;;;;;;11.13;7.82;;;;;;;8.82;100.00;101302.69;4935056;29;20501;-79
2022/10/03 03:22:31;;;;;;;9.93;7.80;;;;;;;8.64;100.00;101273.44;4849484;29;20055;-79
2022/10/03 03:25:26;;;;;;;12.70;8.43;;;;;;;8.84;100.00;101313.22;4916955;29;20126;-79
2022/10/03 03:27:57;;;;;;;12.90;8.48;;;;;;;8.82;100.00;101308.06;4934539;29;20034;-79
2022/10/03 03:30:28;;;;;;;10.77;7.70;;;;;;;8.88;100.00;101311.88;4934764;29;20095;-79
2022/10/03 03:33:06;;;;;;;13.73;8.82;;;;;;;8.88;100.00;101317.25;4933611;29;20110;-79
2022/10/03 03:36:09;;;;;;;11.73;7.70;;;;;;;8.91;100.00;101319.59;4920779;29;20448;-79
2022/10/03 03:38:56;;;;;;;10.05;7.75;;;;;;;8.75;100.00;101288.31;4876022;29;20048;-79
2022/10/03 03:41:44;;;;;;;10.93;7.70;;;;;;;9.03;100.00;101322.69;4900374;29;20041;-79
2022/10/03 03:44:43;;;;;;;8.73;6.97;;;;;;;8.90;100.00;101304.47;4919533;29;20452;-79
2022/10/03 03:47:09;;;;;;;9.25;7.20;;;;;;;9.05;100.00;101328.75;4936796;29;20058;-79
2022/10/03 03:49:56;;;;;;;10.57;7.47;;;;;;;9.06;100.00;101333.09;4937892;29;20020;-79
2022/10/03 03:52:50;;;;;;;13.48;6.93;;;;;;;8.88;100.00;101301.16;4919374;29;20032;-79
2022/10/03 03:56:02;;;;;;;7.18;5.78;;;;;;;9.12;100.00;101330.53;4934102;29;20141;-79
2022/10/03 03:58:46;;;;;;;8.50;3.00;;;;;;;9.29;100.00;101333.94;4919987;29;20208;-79
2022/10/03 04:01:51;;;;;;;5.90;3.00;;;;;;;9.41;100.00;101324.47;4936739;29;20028;-79
2022/10/03 04:04:41;;;;;;;6.38;1.50;;;;;;;9.85;100.00;101331.84;4931668;29;20038;-80
2022/10/03 04:07:16;;;;;;;5.75;1.80;;;;;;;10.06;100.00;101335.69;4925475;29;20112;-80
2022/10/03 04:09:53;;;;;;;8.15;1.27;;;;;;;10.25;100.00;101331.66;4934596;29;20134;-79
2022/10/03 04:12:25;;;;;;;5.30;2.38;;;;;;;10.07;100.00;101342.75;4935510;29;20027;-79
2022/10/03 04:15:02;;;;;;;7.47;2.33;;;;;;;9.40;100.00;101260.19;4916941;29;20448;-79
2022/10/03 04:20:57;;;;;;;7.82;2.90;;;;;;;9.85;100.00;101342.59;4933928;29;20117;-79
2022/10/03 04:23:49;;;;;;;6.70;1.80;;;;;;;9.65;100.00;101328.81;4918542;29;20023;-79
2022/10/03 04:26:50;;;;;;;7.15;2.15;;;;;;;9.70;100.00;101347.13;4916869;29;20043;-79
2022/10/03 04:29:34;;;;;;;8.43;2.15;;;;;;;9.63;100.00;101347.00;4932895;29;20032;-81
2022/10/03 04:32:14;;;;;;;6.82;2.00;;;;;;;9.43;100.00;101334.19;4933770;29;20038;-79
2022/10/03 04:35:14;;;;;;;8.65;2.50;;;;;;;9.51;100.00;101358.34;4932086;29;20036;-80
2022/10/03 04:38:18;;;;;;;7.15;2.30;;;;;;;9.46;100.00;101360.72;4902264;29;20434;-80
2022/10/03 04:41:10;;;;;;;10.25;2.45;;;;;;;9.44;100.00;101362.72;4916905;29;20028;-80
2022/10/03 04:43:45;;;;;;;8.25;2.38;;;;;;;9.43;100.00;101363.75;4904835;29;20499;-80
2022/10/03 04:46:42;;;;;;;4.28;1.77;;;;;;;9.48;100.00;101369.44;4938607;29;20051;-80
2022/10/03 04:49:27;;;;;;;4.70;1.52;;;;;;;9.29;100.00;101339.31;4923527;29;20055;-79
2022/10/03 04:52:01;;;;;;;4.95;1.50;;;;;;;9.48;100.00;101369.44;4934061;29;20035;-80
2022/10/03 04:54:43;;;;;;;6.93;1.75;;;;;;;9.42;100.00;101357.53;4920474;29;20047;-80
2022/10/03 04:57:43;;;;;;;5.65;1.80;;;;;;;9.53;100.00;101372.41;4920406;29;20031;-80
2022/10/03 05:00:48;;;;;;;7.82;1.90;;;;;;;9.56;100.00;101369.38;4937306;29;20483;-80
2022/10/03 05:03:20;;;;;;;;;;;;;;;9.43;100.00;101371.81;4937589;29;20046;-80
2022/10/03 05:06:23;;;;;;;4.65;1.70;;;;;;;9.44;100.00;101371.66;4920367;29;20374;-80
2022/10/03 05:09:10;;;;;;;8.75;1.60;;;;;;;9.31;100.00;101347.22;4920324;29;20103;-79
2022/10/03 05:12:14;;;;;;;2.55;1.38;;;;;;;9.55;100.00;101373.91;4921125;29;20055;-80
2022/10/03 05:14:43;;;;;;;5.28;1.40;;;;;;;9.55;100.00;101370.41;4936900;29;20398;-80
2022/10/03 05:17:26;;;;;;;3.17;1.42;;;;;;;9.57;100.00;101379.09;4919722;29;20122;-79
2022/10/03 05:20:01;;;;;;;3.33;1.30;;;;;;;9.44;100.00;101355.53;4919931;29;20368;-80
2022/10/03 05:22:51;;;;;;;6.00;1.48;;;;;;;9.52;100.00;101385.00;4937643;29;20042;-79
2022/10/03 05:25:45;;;;;;;4.32;2.15;;;;;;;9.26;100.00;101382.66;4936647;29;20024;-79
2022/10/03 05:28:32;;;;;;;4.63;2.05;;;;;;;9.01;100.00;101383.78;4936642;29;20130;-78
2022/10/03 05:31:17;;;;;;;8.85;2.67;;;;;;;8.86;100.00;101365.72;4936782;29;20446;-78
2022/10/03 05:33:52;;;;;;;8.05;2.45;;;;;;;8.90;100.00;101367.03;4936249;29;20392;-78
2022/10/03 05:36:24;;;;;;;4.90;1.63;;;;;;;9.09;100.00;101389.13;4918724;29;20495;-78
2022/10/03 05:39:14;;;;;;;6.70;1.45;;;;;;;9.18;100.00;101398.81;4919112;29;20443;-78
2022/10/03 05:41:50;;;;;;;6.18;1.63;;;;;;;9.13;100.00;101385.06;4922768;29;20032;-78
2022/10/03 05:44:20;;;;;;;5.00;1.50;;;;;;;9.20;100.00;101395.94;4918522;29;20056;-78
2022/10/03 05:47:03;;;;;;;5.47;1.55;;;;;;;9.30;100.00;101399.25;4918363;29;20132;-78
2022/10/03 05:50:04;;;;;;;5.68;1.38;;;;;;;9.13;100.00;101367.09;4919833;29;20489;-78
2022/10/03 05:52:33;;;;;;;6.72;1.48;;;;;;;9.39;100.00;101408.94;4934738;29;20507;-78
2022/10/03 05:55:09;;;;;;;5.55;1.25;;;;;;;9.46;100.00;101401.84;4933790;29;20039;-78
2022/10/03 05:57:58;;;;;;;4.88;1.27;;;;;;;9.57;100.00;101401.44;4935939;29;20190;-78
2022/10/03 06:00:46;;;;;;;5.10;1.20;;;;;;;9.64;100.00;101406.94;4936393;29;20129;-79
2022/10/03 06:03:33;;;;;;;7.65;1.05;;;;;;;9.65;100.00;101385.25;4921582;29;20078;-78
2022/10/03 06:06:24;;;;;;;5.43;1.70;;;;;;;9.70;100.00;101394.63;4936198;29;20024;-79
2022/10/03 06:08:59;;;;;;;5.93;2.22;;;;;;;9.67;100.00;101395.84;4919040;29;20126;-78
2022/10/03 06:11:52;;;;;;;;;;;;;;;9.59;100.00;101409.31;4902852;29;20490;-78
2022/10/03 06:14:42;;;;;;;7.72;1.90;;;;;;;9.49;100.00;101411.41;4906435;29;19915;-77
2022/10/03 06:17:42;;;;;;;4.57;1.48;;;;;;;9.54;100.00;101417.09;4922422;29;20046;-78
2022/10/03 06:20:26;;;;;;;2.88;1.10;;;;;;;9.63;100.00;101419.56;4894609;29;20044;-78
2022/10/03 06:23:24;;;;;;;6.57;1.33;;;;;;;9.77;100.00;101407.19;4914348;29;20078;-78
2022/10/03 06:25:50;;;;;;;6.07;1.20;;;;;;;9.92;100.00;101420.66;4924151;29;20039;-78
2022/10/03 06:28:42;;;;;;;5.13;1.27;;;;;;;10.08;100.00;101430.47;4937350;29;20394;-77
2022/10/03 06:31:38;;;;;;;5.25;1.65;;;;;;;10.26;100.00;101424.78;4937315;29;20185;-78
2022/10/03 06:34:30;;;;;;;7.13;1.45;;;;;;;10.40;100.00;101421.31;4942880;29;20040;-78
2022/10/03 06:37:14;;;;;;;5.43;1.25;;;;;;;10.53;100.00;101436.84;4931586;29;20131;-77
2022/10/03 06:39:48;;;;;;;10.98;1.83;;;;;;;10.69;100.00;101435.81;4915457;29;20027;-78
2022/10/03 06:42:24;;;;;;;6.80;1.25;;;;;;;10.68;100.00;101418.00;4928544;29;20040;-79
2022/10/03 06:45:08;;;;;;;5.28;1.30;;;;;;;10.89;100.00;101438.78;4943780;29;20118;-79
2022/10/03 06:48:04;;;;;;;5.15;1.30;;;;;;;11.01;100.00;101446.22;4928211;29;20024;-78
2022/10/03 06:51:04;;;;;;;8.13;1.25;;;;;;;11.16;100.00;101443.53;4922627;29;20035;-77
2022/10/03 06:53:50;;;;;;;6.22;1.30;;;;;;;11.29;100.00;101443.72;4922398;29;20053;-76
2022/10/03 06:56:37;;;;;;;7.10;1.13;;;;;;;11.39;100.00;101448.81;4927173;29;20066;-78
2022/10/03 06:59:21;;;;;;;5.57;1.23;;;;;;;11.48;100.00;101450.34;4934308;29;20038;-78
2022/10/03 07:01:58;;;;;;;6.70;1.20;;;;;;;11.56;100.00;101452.09;4934993;29;20024;-79
2022/10/03 07:04:51;;;;;;;7.78;1.33;;;;;;;11.72;100.00;101461.81;4952782;29;20042;-78
2022/10/03 07:07:51;;;;;;;6.05;1.08;;;;;;;11.71;100.00;101430.47;4934724;29;20054;-78
2022/10/03 07:10:23;;;;;;;9.00;1.35;;;;;;;11.95;100.00;101445.47;4949807;29;20035;-78
2022/10/03 07:13:10;;;;;;;6.90;1.42;;;;;;;12.15;100.00;101464.56;4950287;29;20483;-78
2022/10/03 07:15:48;;;;;;;11.25;1.30;;;;;;;12.22;100.00;101463.59;4923417;29;20108;-78
2022/10/03 07:18:41;;;;;;;7.95;1.10;;;;;;;12.46;100.00;101464.22;4947793;29;20510;-79
2022/10/03 07:21:27;;;;;;;10.73;1.33;;;;;;;12.73;100.00;101470.66;4924409;29;20047;-78
2022/10/03 07:24:24;;;;;;;9.65;1.20;;;;;;;12.59;100.00;101440.03;4924720;29;20051;-78
2022/10/03 07:27:13;;;;;;;9.00;1.27;;;;;;;12.93;100.00;101466.22;4947696;28;20031;-78
2022/10/03 07:30:06;;;;;;;8.10;1.40;;;;;;;12.96;100.00;101466.84;4893943;29;20113;-78
2022/10/03 07:33:09;;;;;;;7.70;0.93;;;;;;;13.00;100.00;101471.66;4920723;29;20027;-78
2022/10/03 07:38:57;;;;;;;6.13;1.10;;;;;;;13.34;100.00;101478.94;4935514;29;20043;-78
2022/10/03 07:42:17;;;;;;;5.70;0.80;;;;;;;13.42;100.00;101480.63;4952291;29;20039;-78
2022/10/03 07:45:04;;;;;;;4.85;0.90;;;;;;;13.51;100.00;101479.44;4871659;29;20140;-78
2022/10/03 07:47:44;;;;;;;5.72;1.02;;;;;;;13.56;100.00;101490.47;4912112;29;20048;-78
2022/10/03 07:50:30;;;;;;;7.22;1.05;;;;;;;13.63;100.00;101491.31;4932205;29;20028;-78
2022/10/03 07:53:06;;;;;;;6.93;0.95;;;;;;;13.59;100.00;101481.13;4929392;29;20027;-78
2022/10/03 07:55:35;;;;;;;8.57;1.17;;;;;;;13.69;100.00;101497.78;4914945;29;20032;-78
2022/10/03 07:58:24;;;;;;;8.32;0.70;;;;;;;13.69;100.00;101491.56;4946478;29;20030;-78
2022/10/03 08:01:17;;;;;;;8.27;1.08;;;;;;;13.62;100.00;101491.53;4942756;29;20031;-78
2022/10/03 08:04:20;;;;;;;7.90;1.00;;;;;;;13.67;100.00;101496.31;4925631;29;20044;-78
2022/10/03 08:07:01;;;;;;;6.43;0.90;;;;;;;13.73;100.00;101500.94;4910665;29;20039;-78
2022/10/03 08:09:56;;;;;;;3.55;0.70;;;;;;;13.70;100.00;101504.88;4931711;29;20134;-78
2022/10/03 08:12:43;;;;;;;5.20;0.82;;;;;;;13.72;100.00;101507.38;4927971;29;20028;-79
2022/10/03 08:15:30;;;;;;;5.05;1.00;;;;;;;13.77;100.00;101511.13;4930638;29;20101;-79
2022/10/03 08:18:09;;;;;;;4.32;0.80;;;;;;;13.60;100.00;101489.00;4890587;29;20040;-79
2022/10/03 08:20:49;;;;;;;5.55;0.85;;;;;;;13.75;100.00;101504.28;4944769;29;20059;-79
2022/10/03 08:23:52;;;;;;;4.43;0.73;;;;;;;13.82;100.00;101519.47;4926348;29;20072;-79
2022/10/03 08:26:40;;;;;;;5.75;0.77;;;;;;;13.70;100.00;101510.28;4942357;29;20028;-79
2022/10/03 08:29:21;;;;;;;4.60;0.70;;;;;;;13.70;100.00;101496.75;4942056;29;20038;-80
2022/10/03 08:32:22;;;;;;;6.20;0.80;;;;;;;13.90;100.00;101531.97;4923763;29;20051;-79
2022/10/03 08:34:54;;;;;;;6.40;0.85;;;;;;;13.97;100.00;101524.75;4940417;29;20038;-79
2022/10/03 08:37:57;;;;;;;4.97;0.63;;;;;;;13.97;100.00;101535.56;4923946;29;20031;-79
2022/10/03 08:40:56;;;;;;;6.28;0.90;;;;;;;14.02;100.00;101535.78;4922751;29;20023;-79
2022/10/03 08:43:59;;;;;;;4.80;1.05;;;;;;;14.07;100.00;101540.56;4924440;29;20407;-79
2022/10/03 08:47:08;;;;;;;7.18;0.93;;;;;;;14.01;99.94;101528.69;4923926;29;20096;-79
2022/10/03 08:50:05;;;;;;;3.92;0.77;;;;;;;14.13;99.63;101538.91;4906222;29;20032;-79
2022/10/03 08:52:46;;;;;;;7.13;0.90;;;;;;;14.12;95.97;101539.97;4940383;29;20042;-79
2022/10/03 08:55:44;;;;;;;3.50;0.70;;;;;;;14.17;95.61;101541.03;4938563;29;20032;-79
2022/10/03 08:58:42;;;;;;;7.65;0.80;;;;;;;14.15;95.43;101540.38;4936746;29;20082;-80
2022/10/03 09:01:17;;;;;;;5.18;0.70;;;;;;;14.20;94.24;101554.13;4919879;29;20122;-79
2022/10/03 09:04:48;;;;;;;3.20;0.50;;;;;;;14.18;94.87;101544.56;4916275;29;20031;-79
2022/10/03 09:07:16;;;;;;;3.42;0.73;;;;;;;14.18;93.13;101560.81;4925590;29;20063;-79
2022/10/03 09:10:15;;;;;;;2.58;0.50;;;;;;;14.22;90.95;101562.06;4925444;29;20055;-80
2022/10/03 09:12:59;;;;;;;3.17;0.60;;;;;;;14.22;89.50;101564.75;4945700;29;20546;-79
2022/10/03 09:15:54;;;;;;;4.20;0.75;;;;;;;14.25;86.95;101572.47;4929742;29;20018;-79
2022/10/03 09:18:28;;;;;;;3.33;0.65;;;;;;;14.25;85.87;101570.59;4859352;29;20050;-78
2022/10/03 09:21:28;;;;;;;3.17;0.50;;;;;;;14.31;85.61;101568.97;4940426;29;20087;-78
2022/10/03 09:24:30;;;;;;;4.50;0.75;;;;;;;14.29;84.67;101563.72;4909957;29;20054;-77
2022/10/03 09:27:08;;;;;;;4.63;0.63;;;;;;;14.28;84.08;101567.47;4936700;29;20031;-78
2022/10/03 09:29:59;;;;;;;3.88;0.70;;;;;;;14.29;83.52;101569.16;4907665;29;20036;-79
2022/10/03 09:32:47;;;;;;;2.70;0.70;;;;;;;14.16;85.41;101533.94;4937713;29;20491;-79
2022/10/03 09:35:25;;;;;;;3.13;0.60;;;;;;;14.29;87.87;101566.44;4942866;29;20038;-78
2022/10/03 09:38:05;;;;;;;6.55;1.10;;;;;;;14.21;89.04;101566.66;4920987;29;20035;-78
2022/10/03 09:40:39;;;;;;;6.05;1.00;;;;;;;14.12;88.38;101565.16;4923115;29;20036;-77
2022/10/03 09:43:12;;;;;;;2.95;0.70;;;;;;;14.01;88.08;101542.22;4941250;29;20054;-78
2022/10/03 09:45:40;;;;;;;4.85;0.85;;;;;;;14.15;86.45;101572.88;4922170;29;20066;-78
2022/10/03 09:48:31;;;;;;;3.30;0.65;;;;;;;14.19;85.95;101590.34;4938095;29;20031;-79
2022/10/03 09:51:09;;;;;;;4.25;0.80;;;;;;;14.24;88.73;101581.66;4919740;29;20027;-78
2022/10/03 09:53:37;;;;;;;3.53;0.63;;;;;;;14.29;91.49;101579.16;4929726;29;20076;-80
2022/10/03 09:56:39;;;;;;;4.85;0.70;;;;;;;14.23;91.13;101586.19;4940254;29;20115;-78
2022/10/03 09:59:19;;;;;;;6.00;0.68;;;;;;;14.15;89.21;101585.56;4940285;29;20380;-79
2022/10/03 10:02:08;;;;;;;3.35;0.70;;;;;;;13.92;87.88;101561.56;4920991;29;20483;-77
2022/10/03 10:04:45;;;;;;;2.80;0.60;;;;;;;13.98;84.50;101588.63;4926811;29;20087;-79
2022/10/03 10:07:29;;;;;;;4.90;0.95;;;;;;;14.06;81.10;101598.44;4924851;29;20074;-78
2022/10/03 10:10:23;;;;;;;3.90;0.75;;;;;;;14.01;82.12;101587.41;4941154;29;20024;-79
2022/10/03 10:12:54;;;;;;;5.13;0.90;;;;;;;14.13;82.29;101604.69;4930662;29;20102;-77
2022/10/03 10:15:58;;;;;;;2.33;0.52;;;;;;;14.09;81.40;101598.03;4931932;29;20027;-78
2022/10/03 10:18:48;;;;;;;2.25;0.60;;;;;;;14.22;82.61;101608.06;4951533;29;20055;-79
2022/10/03 10:21:22;;;;;;;2.05;0.43;;;;;;;14.12;81.72;101613.03;4921548;29;20443;-78
2022/10/03 10:24:16;;;;;;;4.18;0.63;;;;;;;14.12;80.91;101610.34;4951082;29;20038;-78
2022/10/03 10:26:59;;;;;;;4.00;0.70;;;;;;;14.20;84.25;101615.56;4937780;29;20507;-78
2022/10/03 10:29:34;;;;;;;2.80;0.70;;;;;;;14.21;82.37;101611.81;4930165;29;20060;-79
2022/10/03 10:32:21;;;;;;;2.80;0.85;;;;;;;14.27;82.67;101608.28;4945046;29;20038;-78
2022/10/03 10:35:24;;;;;;;6.60;1.02;;;;;;;14.32;84.57;101616.63;4933064;29;20583;-79
2022/10/03 10:38:33;;;;;;;3.55;0.50;;;;;;;14.15;84.77;101609.94;4923335;29;20068;-78
2022/10/03 10:41:01;;;;;;;2.90;0.57;;;;;;;14.16;84.72;101609.72;4936960;29;20121;-78
2022/10/03 10:44:12;;;;;;;3.42;0.80;;;;;;;14.14;81.87;101610.94;4919453;29;20422;-77
2022/10/03 10:46:38;;;;;;;2.97;0.50;;;;;;;14.24;83.42;101606.84;4887288;29;20048;-78
2022/10/03 10:49:40;;;;;;;2.53;0.80;;;;;;;14.32;82.24;101603.94;4914700;29;20082;-78
2022/10/03 10:52:39;;;;;;;5.80;0.70;;;;;;;14.34;82.52;101612.69;4924165;29;20087;-78
2022/10/03 10:55:07;;;;;;;2.78;0.75;;;;;;;14.26;83.10;101612.88;4918122;29;20032;-78
2022/10/03 10:58:07;;;;;;;5.00;0.80;;;;;;;14.21;83.19;101609.13;4919677;29;20031;-78
2022/10/03 11:01:10;;;;;;;2.35;0.60;;;;;;;14.18;81.15;101601.41;4917941;29;20034;-78
2022/10/03 11:03:36;;;;;;;5.22;0.85;;;;;;;14.27;81.88;101609.16;4936959;29;20035;-78
2022/10/03 11:06:23;;;;;;;3.85;0.65;;;;;;;14.26;79.79;101612.88;4937490;29;20028;-78
2022/10/03 11:09:12;;;;;;;4.30;0.82;;;;;;;14.26;81.62;101615.56;4918081;29;20027;-77
2022/10/03 11:12:19;;;;;;;2.10;0.52;;;;;;;14.15;80.62;101612.63;4904013;29;20138;-78
2022/10/03 11:15:13;;;;;;;3.92;0.80;;;;;;;14.27;83.22;101619.97;4917800;29;20043;-77
2022/10/03 11:17:54;;;;;;;2.80;0.73;;;;;;;14.22;81.79;101618.91;4920111;29;20103;-78
2022/10/03 11:21:02;;;;;;;2.20;0.60;;;;;;;14.29;82.37;101622.47;4917761;29;20276;-77
2022/10/03 11:24:05;;;;;;;3.58;0.50;;;;;;;14.30;81.25;101618.72;4917283;29;20059;-77
2022/10/03 11:26:54;;;;;;;3.80;0.60;;;;;;;14.24;79.29;101624.97;4934869;29;20060;-77
2022/10/03 11:29:39;;;;;;;3.97;0.50;;;;;;;14.26;79.81;101618.28;4917427;29;20039;-78
2022/10/03 11:32:42;;;;;;;2.80;0.70;;;;;;;14.18;78.92;101631.19;4934725;29;20394;-78
2022/10/03 11:35:31;;;;;;;2.47;0.60;;;;;;;14.25;77.42;101638.28;4934484;29;20619;-78
2022/10/03 11:38:20;;;;;;;2.88;0.60;;;;;;;14.13;75.00;101620.13;4931836;29;20043;-77
2022/10/03 11:41:21;;;;;;;3.00;0.50;;;;;;;14.22;77.03;101633.28;4934729;29;20032;-77
2022/10/03 11:44:14;;;;;;;3.30;0.82;;;;;;;14.03;78.62;101596.13;4917709;29;20047;-77
2022/10/03 11:47:01;;;;;;;3.10;0.57;;;;;;;14.23;77.96;101613.28;4930561;29;20043;-77
2022/10/03 11:49:53;;;;;;;4.80;0.90;;;;;;;14.24;78.34;101614.97;4909306;29;20526;-77
2022/10/03 11:52:34;;;;;;;5.13;0.70;;;;;;;14.30;78.15;101624.13;4923800;29;20056;-77
2022/10/03 11:55:30;;;;;;;4.03;0.77;;;;;;;14.22;77.29;101616.19;4934739;29;20031;-77
2022/10/03 11:58:32;;;;;;;4.40;0.60;;;;;;;14.06;76.93;101611.97;4904573;29;20039;-78
2022/10/03 12:01:37;;;;;;;2.85;0.73;;;;;;;14.30;77.25;101624.13;4917568;29;20110;-78
2022/10/03 12:04:40;;;;;;;4.88;0.93;;;;;;;14.27;77.62;101609.16;4917050;29;20032;-77
2022/10/03 12:11:08;;;;;;;3.92;0.60;;;;;;;14.16;77.95;101615.13;4928649;29;20525;-78
2022/10/03 12:13:36;;;;;;;;;;;;;;;14.14;75.63;101617.22;4919253;29;20038;-78
2022/10/03 12:16:11;;;;;;;2.58;0.63;;;;;;;14.21;77.73;101619.94;4936374;29;20414;-78
2022/10/03 12:18:42;;;;;;;1.63;0.65;;;;;;;14.15;78.34;101618.88;4921709;29;20106;-78
2022/10/03 12:21:10;;;;;;;3.30;0.70;;;;;;;14.09;76.84;101619.69;4919102;29;20126;-78
2022/10/03 12:23:54;;;;;;;2.95;0.73;;;;;;;14.07;77.41;101628.03;4903577;29;20024;-78
2022/10/03 12:26:42;;;;;;;4.03;1.07;;;;;;;13.93;81.21;101599.22;4935580;29;20027;-78
2022/10/03 12:29:11;;;;;;;3.22;0.88;;;;;;;14.00;79.82;101635.25;4932018;29;20338;-78
2022/10/03 12:31:56;;;;;;;3.92;1.10;;;;;;;14.02;77.63;101633.19;4922738;29;20315;-78
2022/10/03 12:34:28;;;;;;;;;;;;;;;14.05;79.18;101631.97;4930987;29;20035;-78
2022/10/03 12:36:59;;;;;;;4.30;0.95;;;;;;;13.98;78.75;101648.16;4915558;29;19926;-77
2022/10/03 12:39:33;;;;;;;5.88;0.77;;;;;;;14.03;79.07;101632.16;4916584;29;20027;-77
2022/10/03 12:42:21;;;;;;;5.03;0.98;;;;;;;14.14;78.91;101624.47;4916664;29;20023;-77
2022/10/03 12:45:29;;;;;;;4.88;0.85;;;;;;;14.21;78.17;101647.03;4933494;29;20076;-77
2022/10/03 12:48:10;;;;;;;3.75;0.93;;;;;;;14.14;76.80;101643.41;4892860;29;20443;-77
2022/10/03 12:50:55;;;;;;;3.90;0.75;;;;;;;14.17;74.56;101629.50;4929366;29;20024;-77
2022/10/03 12:53:28;;;;;;;;;;;;;;;14.32;76.17;101643.72;4933927;29;20035;-77
2022/10/03 12:56:15;;;;;;;2.97;0.52;;;;;;;14.33;75.80;101645.38;4933729;29;20374;-78
2022/10/03 12:58:40;;;;;;;5.47;0.90;;;;;;;14.37;75.28;101643.09;4933565;29;20028;-78
2022/10/03 13:01:44;;;;;;;4.10;0.70;;;;;;;14.02;75.63;101583.66;4933257;29;20039;-78
2022/10/03 13:04:30;;;;;;;3.80;0.82;;;;;;;14.37;82.80;101643.09;4917430;29;20113;-77